Time;durP1;ratioP1;P1;durP2;ratioP2;P2;SDS_P1;SDS_P2;PMS_P1;PMS_P2;Temp;Humidity;BMP_temperature;BMP_pressure;BME280_temperature;BME280_humidity;BME280_pressure;Samples;Min_cycle;Max_cycle;Signal;HPM_P1;HPM_P2
2023/10/02 00:01:24;;;;;;;30.70;15.00;;;;;;;;;;4935129;29;20032;-86
2023/10/02 00:04:16;;;;;;;25.77;13.77;;;;;;;;;;4935928;29;20533;-86
2023/10/02 00:06:36;;;;;;;25.77;13.95;;;;;;;;;;4936224;29;20461;-86
2023/10/02 00:09:04;;;;;;;25.67;14.27;;;;;;;;;;4934877;29;20474;-86
2023/10/02 00:11:36;;;;;;;29.42;14.35;;;;;;;;;;4936379;29;20347;-86
2023/10/02 00:14:18;;;;;;;30.38;14.15;;;;;;;;;;4935587;29;20363;-86
2023/10/02 00:16:58;;;;;;;26.98;13.88;;;;;;;;;;4935979;29;20050;-86
2023/10/02 00:19:27;;;;;;;;;;;;;;;;;;4935242;29;20078;-86
2023/10/02 00:21:55;;;;;;;30.30;13.93;;;;;;;;;;4934823;29;19906;-86
2023/10/02 00:24:24;;;;;;;24.38;13.73;;;;;;;;;;4936249;29;20036;-86
2023/10/02 00:26:51;;;;;;;26.60;13.50;;;;;;;;;;4936149;29;20383;-86
2023/10/02 00:29:17;;;;;;;26.90;13.25;;;;;;;;;;4934796;29;20031;-86
2023/10/02 00:31:46;;;;;;;23.95;12.77;;;;;;;;;;4939274;29;20024;-86
2023/10/02 00:34:13;;;;;;;26.98;12.63;;;;;;;;;;4938078;29;20050;-86
2023/10/02 00:36:40;;;;;;;27.15;13.75;;;;;;;;;;4939338;29;20446;-86
2023/10/02 00:39:24;;;;;;;25.55;12.45;;;;;;;;;;4938228;29;20035;-86
2023/10/02 00:42:32;;;;;;;24.70;12.52;;;;;;;;;;4939368;29;20027;-86
2023/10/02 00:44:52;;;;;;;28.92;13.15;;;;;;;;;;4934277;29;20055;-86
2023/10/02 00:47:38;;;;;;;29.50;12.95;;;;;;;;;;4939161;29;20470;-86
2023/10/02 00:50:10;;;;;;;24.05;13.27;;;;;;;;;;4939284;29;20052;-86
2023/10/02 00:52:41;;;;;;;28.02;13.98;;;;;;;;;;4938125;29;20028;-86
2023/10/02 00:55:11;;;;;;;29.30;14.38;;;;;;;;;;4937658;29;20442;-86
2023/10/02 00:57:41;;;;;;;25.52;13.15;;;;;;;;;;4939183;29;20429;-86
2023/10/02 01:00:17;;;;;;;28.70;14.07;;;;;;;;;;4939058;29;20023;-86
2023/10/02 01:02:48;;;;;;;26.10;13.68;;;;;;;;;;4938592;29;20035;-86
2023/10/02 01:05:16;;;;;;;27.85;13.32;;;;;;;;;;4937775;29;20114;-86
2023/10/02 01:07:46;;;;;;;31.17;14.00;;;;;;;;;;4938885;29;20024;-86
2023/10/02 01:10:18;;;;;;;;;;;;;;;;;;4939456;29;20028;-86
2023/10/02 01:12:49;;;;;;;29.67;13.93;;;;;;;;;;4937588;29;20001;-86
2023/10/02 01:15:15;;;;;;;27.90;13.57;;;;;;;;;;4936872;29;20199;-86
2023/10/02 01:17:45;;;;;;;30.05;14.43;;;;;;;;;;4938465;29;20032;-86
2023/10/02 01:20:21;;;;;;;27.08;13.80;;;;;;;;;;4938848;29;20030;-86
2023/10/02 01:22:55;;;;;;;24.80;13.75;;;;;;;;;;4938430;29;20057;-86
2023/10/02 01:25:25;;;;;;;32.92;14.68;;;;;;;;;;4939010;29;20024;-86
2023/10/02 01:27:55;;;;;;;27.92;14.30;;;;;;;;;;4937500;29;20032;-86
2023/10/02 01:30:22;;;;;;;30.73;14.73;;;;;;;;;;4937111;29;20118;-86
2023/10/02 01:33:06;;;;;;;29.08;14.82;;;;;;;;;;4937094;29;20067;-86
2023/10/02 01:35:34;;;;;;;29.08;14.02;;;;;;;;;;4938801;29;20015;-86
2023/10/02 01:38:00;;;;;;;25.73;13.65;;;;;;;;;;4938255;29;20066;-86
2023/10/02 01:40:33;;;;;;;29.30;14.88;;;;;;;;;;4937112;29;20028;-86
2023/10/02 01:43:11;;;;;;;29.75;15.18;;;;;;;;;;4935823;29;20544;-86
2023/10/02 01:45:42;;;;;;;29.20;14.27;;;;;;;;;;4938931;29;20059;-86
2023/10/02 01:48:09;;;;;;;30.92;14.80;;;;;;;;;;4939713;29;20031;-86
2023/10/02 01:50:36;;;;;;;29.67;16.23;;;;;;;;;;4936683;29;20027;-86
2023/10/02 01:53:26;;;;;;;31.67;15.57;;;;;;;;;;4936778;29;20056;-86
2023/10/02 01:56:00;;;;;;;33.05;17.15;;;;;;;;;;4938170;29;20019;-86
2023/10/02 01:58:26;;;;;;;33.35;17.95;;;;;;;;;;4937572;29;20118;-86
2023/10/02 02:00:52;;;;;;;33.72;18.30;;;;;;;;;;4938004;29;20497;-86
2023/10/02 02:03:18;;;;;;;41.33;20.92;;;;;;;;;;4937486;29;20031;-86
2023/10/02 02:05:46;;;;;;;42.78;20.50;;;;;;;;;;4937831;29;20047;-86
2023/10/02 02:08:21;;;;;;;43.80;21.75;;;;;;;;;;4937447;29;20039;-86
2023/10/02 02:10:51;;;;;;;42.03;22.40;;;;;;;;;;4936140;29;20114;-86
2023/10/02 02:13:17;;;;;;;;;;;;;;;;;;4937151;29;20042;-86
2023/10/02 02:15:51;;;;;;;48.00;23.30;;;;;;;;;;4935755;29;19919;-86
2023/10/02 02:18:19;;;;;;;52.25;24.50;;;;;;;;;;4936945;29;20023;-86
2023/10/02 02:20:57;;;;;;;48.42;24.70;;;;;;;;;;4936040;29;20122;-86
2023/10/02 02:23:26;;;;;;;54.58;25.70;;;;;;;;;;4936963;29;20024;-86
2023/10/02 02:25:52;;;;;;;50.28;25.05;;;;;;;;;;4937484;29;20434;-86
2023/10/02 02:28:18;;;;;;;50.88;26.23;;;;;;;;;;4935759;29;20080;-86
2023/10/02 02:30:44;;;;;;;45.65;24.45;;;;;;;;;;4937357;29;20033;-86
2023/10/02 02:33:12;;;;;;;51.28;25.00;;;;;;;;;;4935798;29;20509;-86
2023/10/02 02:35:39;;;;;;;47.80;24.25;;;;;;;;;;4937299;29;20083;-86
2023/10/02 02:38:16;;;;;;;54.08;25.20;;;;;;;;;;4937233;29;20059;-86
2023/10/02 02:40:42;;;;;;;49.65;25.98;;;;;;;;;;4937069;29;20031;-86
2023/10/02 02:43:19;;;;;;;53.95;25.55;;;;;;;;;;4936449;29;20454;-86
2023/10/02 02:45:45;;;;;;;50.40;24.45;;;;;;;;;;4936543;29;20082;-86
2023/10/02 02:48:12;;;;;;;49.97;24.23;;;;;;;;;;4937025;29;20038;-86
2023/10/02 02:50:41;;;;;;;51.28;26.52;;;;;;;;;;4935583;29;20370;-86
2023/10/02 02:53:17;;;;;;;47.97;25.38;;;;;;;;;;4936501;29;20026;-86
2023/10/02 02:55:58;;;;;;;54.28;25.33;;;;;;;;;;4935544;29;20035;-86
2023/10/02 02:58:25;;;;;;;44.80;23.02;;;;;;;;;;4937035;29;20062;-86
2023/10/02 03:00:53;;;;;;;55.15;24.83;;;;;;;;;;4937281;29;20026;-86
2023/10/02 03:03:34;;;;;;;48.55;23.70;;;;;;;;;;4935450;29;20024;-86
2023/10/02 03:06:00;;;;;;;50.92;24.83;;;;;;;;;;4935534;29;20055;-86
2023/10/02 03:08:37;;;;;;;53.13;25.13;;;;;;;;;;4935410;29;20069;-86
2023/10/02 03:11:06;;;;;;;47.42;24.33;;;;;;;;;;4936090;29;20032;-86
2023/10/02 03:13:34;;;;;;;54.67;25.83;;;;;;;;;;4936577;29;20036;-86
2023/10/02 03:16:08;;;;;;;48.67;24.95;;;;;;;;;;4935289;29;20047;-86
2023/10/02 03:18:37;;;;;;;53.15;25.35;;;;;;;;;;4936459;29;20436;-86
2023/10/02 03:23:38;;;;;;;52.22;24.95;;;;;;;;;;4936812;29;20038;-86
2023/10/02 03:26:07;;;;;;;54.55;25.42;;;;;;;;;;4936412;29;20075;-85
2023/10/02 03:28:34;;;;;;;60.83;26.00;;;;;;;;;;4936608;29;20390;-86
2023/10/02 03:31:01;;;;;;;54.88;25.88;;;;;;;;;;4935294;29;20032;-86
2023/10/02 03:33:31;;;;;;;57.40;25.63;;;;;;;;;;4936622;29;20028;-86
2023/10/02 03:36:09;;;;;;;57.65;26.55;;;;;;;;;;4935163;29;20485;-86
2023/10/02 03:38:43;;;;;;;55.92;26.45;;;;;;;;;;4935239;29;20031;-86
2023/10/02 03:41:10;;;;;;;53.33;27.02;;;;;;;;;;4935938;29;20389;-86
2023/10/02 03:43:49;;;;;;;51.85;26.42;;;;;;;;;;4935005;29;20371;-86
2023/10/02 03:46:22;;;;;;;54.95;26.48;;;;;;;;;;4935063;29;20035;-86
2023/10/02 03:48:58;;;;;;;56.95;26.23;;;;;;;;;;4936467;29;20036;-86
2023/10/02 03:51:40;;;;;;;57.10;26.38;;;;;;;;;;4935040;29;20027;-86
2023/10/02 03:54:21;;;;;;;58.80;27.77;;;;;;;;;;4935229;29;20497;-86
2023/10/02 03:56:50;;;;;;;53.53;24.95;;;;;;;;;;4936487;29;20024;-86
2023/10/02 03:59:17;;;;;;;53.15;25.92;;;;;;;;;;4936155;29;20075;-86
2023/10/02 04:01:43;;;;;;;59.47;28.17;;;;;;;;;;4934790;29;20035;-87
2023/10/02 04:06:35;;;;;;;58.38;27.02;;;;;;;;;;4939588;29;20028;-86
2023/10/02 04:11:42;;;;;;;56.45;25.83;;;;;;;;;;4940032;29;20036;-86
2023/10/02 04:14:17;;;;;;;53.38;26.15;;;;;;;;;;4939957;29;20027;-86
2023/10/02 04:16:51;;;;;;;52.22;26.80;;;;;;;;;;4938224;29;20063;-86
2023/10/02 04:19:23;;;;;;;54.78;26.38;;;;;;;;;;4939841;29;20027;-84
2023/10/02 04:21:49;;;;;;;61.88;25.85;;;;;;;;;;4939891;29;20024;-86
2023/10/02 04:24:23;;;;;;;50.50;25.23;;;;;;;;;;4938159;29;20046;-86
2023/10/02 04:26:53;;;;;;;50.25;24.85;;;;;;;;;;4938100;29;20090;-86
2023/10/02 04:29:29;;;;;;;54.10;26.15;;;;;;;;;;4939060;29;20031;-86
2023/10/02 04:32:12;;;;;;;50.65;24.75;;;;;;;;;;4938465;29;20549;-86
2023/10/02 04:34:38;;;;;;;59.67;26.08;;;;;;;;;;4940016;29;20035;-86
2023/10/02 04:37:19;;;;;;;49.97;25.17;;;;;;;;;;4939394;29;20055;-86
2023/10/02 04:42:57;;;;;;;46.85;22.08;;;;;;;;;;4939885;29;20080;-85
2023/10/02 04:45:25;;;;;;;41.42;20.38;;;;;;;;;;4939485;29;20039;-85
2023/10/02 04:47:55;;;;;;;41.45;20.63;;;;;;;;;;4939330;29;20032;-85
2023/10/02 04:52:55;;;;;;;44.78;22.58;;;;;;;;;;4939479;29;20611;-86
2023/10/02 04:55:25;;;;;;;46.15;23.08;;;;;;;;;;4939066;29;20103;-85
2023/10/02 04:57:54;;;;;;;41.72;21.98;;;;;;;;;;4939184;29;20393;-85
2023/10/02 05:01:18;;;;;;;41.08;21.55;;;;;;;;;;4939519;29;20024;-86
2023/10/02 05:03:24;;;;;;;43.60;23.10;;;;;;;;;;4938781;29;20377;-85
2023/10/02 05:05:53;;;;;;;48.78;23.42;;;;;;;;;;4940000;29;20016;-85
2023/10/02 05:08:21;;;;;;;46.28;23.13;;;;;;;;;;4939387;29;20027;-85
2023/10/02 05:10:56;;;;;;;45.65;23.40;;;;;;;;;;4939628;29;20031;-85
2023/10/02 05:16:07;;;;;;;46.03;23.15;;;;;;;;;;4938046;29;20497;-85
2023/10/02 05:18:33;;;;;;;49.17;23.73;;;;;;;;;;4939230;29;20036;-85
2023/10/02 05:21:04;;;;;;;48.75;25.00;;;;;;;;;;4937947;29;20565;-85
2023/10/02 05:23:30;;;;;;;45.08;23.80;;;;;;;;;;4939061;29;20075;-85
2023/10/02 05:26:02;;;;;;;42.03;23.08;;;;;;;;;;4938870;29;20038;-85
2023/10/02 05:28:44;;;;;;;47.95;23.25;;;;;;;;;;4938849;29;20036;-85
2023/10/02 05:31:12;;;;;;;46.85;23.58;;;;;;;;;;4938987;29;20107;-85
2023/10/02 05:33:38;;;;;;;43.72;22.70;;;;;;;;;;4937289;29;20389;-85
2023/10/02 05:36:16;;;;;;;45.25;23.02;;;;;;;;;;4937567;29;20031;-85
2023/10/02 05:39:05;;;;;;;43.88;22.05;;;;;;;;;;4937136;29;20023;-85
2023/10/02 05:41:38;;;;;;;50.90;24.38;;;;;;;;;;4938856;29;20355;-85
2023/10/02 05:44:12;;;;;;;44.25;23.20;;;;;;;;;;4936790;29;20027;-85
2023/10/02 05:46:55;;;;;;;45.70;23.17;;;;;;;;;;4938516;29;20489;-85
2023/10/02 05:49:23;;;;;;;41.45;22.30;;;;;;;;;;4936879;29;20508;-85
2023/10/02 05:51:49;;;;;;;48.78;23.73;;;;;;;;;;4937189;29;20510;-85
2023/10/02 05:54:19;;;;;;;45.47;23.42;;;;;;;;;;4940278;29;20035;-85
2023/10/02 05:56:45;;;;;;;46.30;23.98;;;;;;;;;;4935035;29;20036;-85
2023/10/02 05:59:12;;;;;;;49.78;24.35;;;;;;;;;;4926944;29;20057;-85
2023/10/02 06:01:38;;;;;;;45.15;21.92;;;;;;;;;;4927336;29;20031;-86
2023/10/02 06:04:05;;;;;;;45.17;25.60;;;;;;;;;;4918164;29;20028;-86
2023/10/02 06:06:38;;;;;;;52.20;25.67;;;;;;;;;;4917632;29;20039;-86
2023/10/02 06:09:14;;;;;;;49.67;24.45;;;;;;;;;;4917301;29;20044;-86
2023/10/02 06:11:59;;;;;;;51.22;25.08;;;;;;;;;;4917813;29;20398;-86
2023/10/02 06:14:26;;;;;;;48.40;25.63;;;;;;;;;;4918946;29;20032;-86
2023/10/02 06:16:52;;;;;;;54.25;26.17;;;;;;;;;;4932525;29;20039;-86
2023/10/02 06:19:19;;;;;;;59.50;27.45;;;;;;;;;;4933012;29;20123;-86
2023/10/02 06:22:04;;;;;;;58.00;27.92;;;;;;;;;;4933269;29;20101;-86
2023/10/02 06:24:30;;;;;;;56.03;26.98;;;;;;;;;;4934202;29;20122;-86
2023/10/02 06:27:17;;;;;;;58.42;27.50;;;;;;;;;;4918359;29;20043;-86
2023/10/02 06:29:56;;;;;;;52.92;27.08;;;;;;;;;;4918548;29;20024;-86
2023/10/02 06:32:23;;;;;;;57.28;26.58;;;;;;;;;;4935918;29;20466;-86
2023/10/02 06:34:57;;;;;;;58.85;27.48;;;;;;;;;;4936158;29;20074;-86
2023/10/02 06:37:35;;;;;;;60.22;27.63;;;;;;;;;;4937591;29;20027;-86
2023/10/02 06:40:05;;;;;;;52.17;26.10;;;;;;;;;;4935805;29;20024;-86
2023/10/02 06:42:32;;;;;;;61.58;28.50;;;;;;;;;;4936499;29;20031;-87
2023/10/02 06:45:09;;;;;;;54.08;27.02;;;;;;;;;;4935692;29;20028;-87
2023/10/02 06:47:35;;;;;;;58.63;27.05;;;;;;;;;;4935569;29;20028;-87
2023/10/02 06:50:21;;;;;;;56.58;26.20;;;;;;;;;;4936686;29;20027;-86
2023/10/02 06:52:49;;;;;;;52.70;26.00;;;;;;;;;;4935549;29;20410;-86
2023/10/02 06:55:17;;;;;;;51.35;24.75;;;;;;;;;;4935814;29;20082;-86
2023/10/02 06:57:49;;;;;;;49.47;26.27;;;;;;;;;;4935528;29;20087;-86
2023/10/02 07:00:19;;;;;;;52.85;24.55;;;;;;;;;;4936350;29;20027;-87
2023/10/02 07:02:56;;;;;;;48.22;24.55;;;;;;;;;;4935622;29;20024;-86
2023/10/02 07:05:27;;;;;;;50.28;25.58;;;;;;;;;;4927654;29;20028;-86
2023/10/02 07:07:59;;;;;;;47.28;24.27;;;;;;;;;;4917348;29;20042;-84
2023/10/02 07:10:25;;;;;;;50.67;24.13;;;;;;;;;;4918026;29;20036;-84
2023/10/02 07:12:51;;;;;;;49.33;23.27;;;;;;;;;;4927746;29;20534;-83
2023/10/02 07:21:25;;;;;;;47.95;23.35;;;;;;;;;;4937230;29;20573;-88
2023/10/02 07:23:51;;;;;;;50.20;22.98;;;;;;;;;;4935344;29;20035;-88
2023/10/02 07:26:45;;;;;;;47.30;23.33;;;;;;;;;;4935349;29;20035;-88
2023/10/02 07:29:08;;;;;;;46.33;22.15;;;;;;;;;;4936501;29;20039;-88
2023/10/02 07:31:46;;;;;;;;;;;;;;;;;;;;;
2023/10/02 07:34:16;;;;;;;46.35;22.23;;;;;;;;;;4936231;29;20036;-89
2023/10/02 07:36:46;;;;;;;41.17;20.42;;;;;;;;;;4935096;29;20035;-89
2023/10/02 07:39:35;;;;;;;40.90;20.73;;;;;;;;;;4936469;29;20035;-89
2023/10/02 07:42:04;;;;;;;40.72;20.05;;;;;;;;;;4939998;29;20107;-89
2023/10/02 07:44:36;;;;;;;41.08;20.63;;;;;;;;;;4939814;29;20080;-89
2023/10/02 07:47:10;;;;;;;37.80;19.27;;;;;;;;;;4939258;29;20032;-89
2023/10/02 07:49:37;;;;;;;36.53;18.85;;;;;;;;;;4939603;29;20145;-89
2023/10/02 07:52:06;;;;;;;36.70;19.17;;;;;;;;;;4923403;29;20036;-89
2023/10/02 07:54:44;;;;;;;35.53;17.88;;;;;;;;;;4920432;29;20064;-89
2023/10/02 07:57:13;;;;;;;38.45;18.73;;;;;;;;;;4920070;29;20060;-89
2023/10/02 07:59:43;;;;;;;34.50;17.33;;;;;;;;;;4920483;29;20028;-89
2023/10/02 08:02:22;;;;;;;36.42;17.92;;;;;;;;;;4921157;29;20020;-89
2023/10/02 08:04:51;;;;;;;35.13;17.38;;;;;;;;;;4919383;29;20542;-89
2023/10/02 08:07:17;;;;;;;36.40;17.48;;;;;;;;;;4920276;29;20115;-89
2023/10/02 08:09:52;;;;;;;36.88;18.40;;;;;;;;;;4920121;29;20422;-89
2023/10/02 08:12:33;;;;;;;34.58;15.93;;;;;;;;;;4920239;29;20047;-89
2023/10/02 08:15:26;;;;;;;35.92;16.63;;;;;;;;;;4919165;29;20364;-88
2023/10/02 08:20:31;;;;;;;31.02;15.60;;;;;;;;;;4920866;29;20360;-89
2023/10/02 08:22:57;;;;;;;32.53;14.90;;;;;;;;;;4919504;29;20043;-90
2023/10/02 08:25:24;;;;;;;28.73;15.63;;;;;;;;;;4919350;29;20035;-90
2023/10/02 08:27:57;;;;;;;29.92;14.68;;;;;;;;;;4919697;29;20052;-90
2023/10/02 08:30:27;;;;;;;27.45;14.75;;;;;;;;;;4919867;29;20024;-90
2023/10/02 08:32:54;;;;;;;27.05;15.18;;;;;;;;;;4919274;29;20028;-90
2023/10/02 08:35:20;;;;;;;31.10;15.10;;;;;;;;;;4919534;29;20367;-89
2023/10/02 08:37:52;;;;;;;28.52;14.30;;;;;;;;;;4919835;29;20035;-89
2023/10/02 08:40:18;;;;;;;28.70;14.60;;;;;;;;;;4920825;29;20368;-89
2023/10/02 08:42:52;;;;;;;27.20;13.70;;;;;;;;;;4921088;29;20374;-89
2023/10/02 08:45:21;;;;;;;27.58;14.57;;;;;;;;;;4919761;29;20044;-89
2023/10/02 08:47:52;;;;;;;26.13;14.05;;;;;;;;;;4918958;29;20071;-89
2023/10/02 08:50:18;;;;;;;24.73;13.40;;;;;;;;;;4918605;29;20100;-89
2023/10/02 08:52:50;;;;;;;23.80;12.43;;;;;;;;;;4918662;29;20087;-89
2023/10/02 08:55:36;;;;;;;26.45;12.38;;;;;;;;;;4919462;29;20028;-89
2023/10/02 08:58:17;;;;;;;25.95;12.32;;;;;;;;;;4919740;29;20467;-89
2023/10/02 09:03:41;;;;;;;21.67;10.75;;;;;;;;;;4920098;29;20036;-89
2023/10/02 09:06:35;;;;;;;23.40;9.93;;;;;;;;;;4919150;29;20039;-89
2023/10/02 09:09:21;;;;;;;22.08;10.23;;;;;;;;;;4918348;29;20379;-90
2023/10/02 09:11:52;;;;;;;23.33;10.05;;;;;;;;;;4919136;29;20035;-89
2023/10/02 09:14:22;;;;;;;19.80;8.35;;;;;;;;;;4919279;29;20028;-89
2023/10/02 09:17:07;;;;;;;22.35;11.38;;;;;;;;;;4917851;29;20055;-89
2023/10/02 09:19:34;;;;;;;21.25;9.82;;;;;;;;;;4918855;29;20391;-89
2023/10/02 09:22:06;;;;;;;23.67;11.00;;;;;;;;;;4919225;29;20032;-89
2023/10/02 09:24:36;;;;;;;23.73;11.43;;;;;;;;;;4919367;29;20442;-90
2023/10/02 09:27:30;;;;;;;25.48;11.60;;;;;;;;;;4918613;29;20032;-90
2023/10/02 09:32:50;;;;;;;25.15;11.07;;;;;;;;;;4921708;29;20478;-90
2023/10/02 09:36:00;;;;;;;22.40;10.90;;;;;;;;;;4918456;29;20399;-90
2023/10/02 09:38:10;;;;;;;19.23;9.95;;;;;;;;;;4909263;29;20043;-90
2023/10/02 09:43:28;;;;;;;19.25;10.48;;;;;;;;;;4919385;29;20172;-90
2023/10/02 09:46:15;;;;;;;26.60;11.80;;;;;;;;;;4918638;29;20079;-90
2023/10/02 09:49:01;;;;;;;24.77;10.93;;;;;;;;;;4919021;29;20072;-90
2023/10/02 09:51:30;;;;;;;26.60;11.32;;;;;;;;;;4918262;29;20036;-90
2023/10/02 09:54:16;;;;;;;21.98;10.90;;;;;;;;;;4917806;29;20028;-90
2023/10/02 09:57:17;;;;;;;20.42;10.57;;;;;;;;;;4917702;29;20043;-90
2023/10/02 09:59:46;;;;;;;22.15;10.80;;;;;;;;;;4918858;29;20032;-90
2023/10/02 10:05:22;;;;;;;21.63;10.75;;;;;;;;;;4921548;29;20091;-89
2023/10/02 10:10:45;;;;;;;19.67;10.67;;;;;;;;;;4918850;29;20079;-89
2023/10/02 10:13:24;;;;;;;22.48;10.50;;;;;;;;;;4918355;29;20039;-89
2023/10/02 10:15:51;;;;;;;26.55;10.73;;;;;;;;;;4917335;29;20052;-89
2023/10/02 10:18:17;;;;;;;18.90;9.55;;;;;;;;;;4918316;29;20090;-90
2023/10/02 10:20:44;;;;;;;20.58;10.15;;;;;;;;;;4917461;29;20479;-89
2023/10/02 10:23:41;;;;;;;20.50;9.73;;;;;;;;;;5112152;27;20458;-89
2023/10/02 10:26:26;;;;;;;17.92;8.85;;;;;;;;;;5111499;28;20031;-89
2023/10/02 10:28:53;;;;;;;18.23;8.98;;;;;;;;;;5093447;28;20028;-89
2023/10/02 10:31:29;;;;;;;18.15;9.30;;;;;;;;;;5094038;28;20084;-89
2023/10/02 10:33:56;;;;;;;17.70;9.02;;;;;;;;;;5093460;28;20501;-89
2023/10/02 10:36:38;;;;;;;18.40;9.25;;;;;;;;;;5094290;28;20420;-89
2023/10/02 10:39:30;;;;;;;17.13;9.15;;;;;;;;;;5093934;28;20066;-89
2023/10/02 10:42:09;;;;;;;18.73;9.23;;;;;;;;;;5111179;28;20088;-89
2023/10/02 10:44:38;;;;;;;19.13;10.07;;;;;;;;;;5094014;28;20058;-89
2023/10/02 10:47:04;;;;;;;20.00;10.43;;;;;;;;;;5093197;28;20023;-89
2023/10/02 10:49:53;;;;;;;19.33;10.05;;;;;;;;;;5093194;28;20023;-89
2023/10/02 10:52:24;;;;;;;;;;;;;;;;;;5094380;28;20119;-89
2023/10/02 10:54:53;;;;;;;18.60;10.55;;;;;;;;;;5093388;28;19911;-89
2023/10/02 10:57:22;;;;;;;14.75;9.73;;;;;;;;;;5092926;28;20073;-89
2023/10/02 10:59:48;;;;;;;20.70;10.52;;;;;;;;;;5092886;28;20499;-89
2023/10/02 11:02:15;;;;;;;18.40;10.77;;;;;;;;;;5092761;28;20055;-89
2023/10/02 11:04:51;;;;;;;20.17;11.10;;;;;;;;;;5093624;28;20028;-89
2023/10/02 11:07:20;;;;;;;21.00;11.73;;;;;;;;;;5092939;28;20024;-89
2023/10/02 11:10:15;;;;;;;21.42;11.98;;;;;;;;;;5093045;28;20035;-89
2023/10/02 11:12:54;;;;;;;23.13;13.00;;;;;;;;;;5093559;28;20020;-89
2023/10/02 11:18:23;;;;;;;22.20;13.07;;;;;;;;;;5090570;28;20032;-89
2023/10/02 11:20:54;;;;;;;21.88;12.63;;;;;;;;;;5073129;28;20035;-89
2023/10/02 11:23:24;;;;;;;22.73;12.20;;;;;;;;;;5072218;28;20137;-89
2023/10/02 11:25:52;;;;;;;21.20;11.98;;;;;;;;;;5073329;28;20055;-88
2023/10/02 11:28:36;;;;;;;23.33;12.27;;;;;;;;;;5073158;28;20427;-89
2023/10/02 11:31:45;;;;;;;20.05;11.43;;;;;;;;;;5072609;28;20032;-89
2023/10/02 11:34:12;;;;;;;19.17;11.02;;;;;;;;;;5032701;28;20500;-89
2023/10/02 11:36:52;;;;;;;23.40;11.55;;;;;;;;;;5058566;28;20078;-89
2023/10/02 11:39:19;;;;;;;18.88;10.88;;;;;;;;;;5059361;28;20119;-89
2023/10/02 11:41:46;;;;;;;17.38;10.48;;;;;;;;;;5058532;28;20371;-89
2023/10/02 11:44:13;;;;;;;17.38;10.93;;;;;;;;;;5058483;28;20025;-89
2023/10/02 11:46:48;;;;;;;19.25;11.05;;;;;;;;;;5058481;28;20119;-89
2023/10/02 11:49:14;;;;;;;16.58;10.02;;;;;;;;;;5058726;28;20024;-89
2023/10/02 11:51:43;;;;;;;18.77;10.95;;;;;;;;;;5059153;28;20040;-89
2023/10/02 11:54:11;;;;;;;19.98;11.48;;;;;;;;;;5063766;28;20055;-89
2023/10/02 11:56:38;;;;;;;18.20;10.80;;;;;;;;;;5081010;28;20025;-89
2023/10/02 11:59:06;;;;;;;19.45;11.23;;;;;;;;;;5081409;28;20101;-89
2023/10/02 12:01:32;;;;;;;18.08;10.02;;;;;;;;;;5080426;28;20016;-88
2023/10/02 12:03:58;;;;;;;20.02;9.77;;;;;;;;;;5071458;28;20032;-89
2023/10/02 12:06:25;;;;;;;20.95;12.05;;;;;;;;;;5060063;28;20024;-88
2023/10/02 12:08:52;;;;;;;18.52;11.85;;;;;;;;;;5068770;28;20454;-89
2023/10/02 12:11:18;;;;;;;20.13;11.45;;;;;;;;;;5058076;28;20020;-89
2023/10/02 12:13:44;;;;;;;20.10;11.50;;;;;;;;;;5058140;28;20502;-89
2023/10/02 12:16:11;;;;;;;20.98;11.98;;;;;;;;;;5058807;28;20103;-89
2023/10/02 12:18:38;;;;;;;18.00;11.10;;;;;;;;;;5058577;28;20024;-89
2023/10/02 12:21:08;;;;;;;20.25;11.77;;;;;;;;;;5056558;28;20543;-89
2023/10/02 12:23:39;;;;;;;18.48;11.27;;;;;;;;;;5058605;28;20078;-89
2023/10/02 12:26:05;;;;;;;18.52;10.90;;;;;;;;;;5058600;28;20047;-89
2023/10/02 12:28:32;;;;;;;20.33;11.63;;;;;;;;;;5057575;28;20090;-89
2023/10/02 12:30:59;;;;;;;19.40;11.40;;;;;;;;;;5058309;28;20063;-89
2023/10/02 12:33:25;;;;;;;20.65;11.85;;;;;;;;;;5057497;28;20021;-89
2023/10/02 12:35:54;;;;;;;20.27;11.80;;;;;;;;;;5058130;28;20025;-89
2023/10/02 12:38:24;;;;;;;23.90;13.60;;;;;;;;;;5057473;28;20052;-89
2023/10/02 12:40:51;;;;;;;20.52;11.93;;;;;;;;;;5057134;28;20261;-89
2023/10/02 12:43:17;;;;;;;19.98;12.40;;;;;;;;;;5058211;28;20130;-89
2023/10/02 12:45:43;;;;;;;21.17;12.02;;;;;;;;;;5056718;28;20120;-88
2023/10/02 12:48:12;;;;;;;21.40;11.73;;;;;;;;;;5059266;28;20024;-88
2023/10/02 12:50:42;;;;;;;19.55;12.70;;;;;;;;;;5059223;28;20028;-88
2023/10/02 12:53:10;;;;;;;24.13;14.00;;;;;;;;;;5057325;28;20053;-89
2023/10/02 12:55:36;;;;;;;23.33;12.68;;;;;;;;;;5057847;28;20056;-89
2023/10/02 12:58:04;;;;;;;20.65;11.25;;;;;;;;;;5075186;28;20020;-89
2023/10/02 13:00:33;;;;;;;19.27;10.85;;;;;;;;;;5057088;28;20024;-89
2023/10/02 13:02:59;;;;;;;19.20;10.80;;;;;;;;;;5057730;28;20473;-89
2023/10/02 13:05:26;;;;;;;20.67;12.85;;;;;;;;;;5056933;28;20079;-89
2023/10/02 13:07:56;;;;;;;20.98;13.10;;;;;;;;;;5057704;28;20439;-89
2023/10/02 13:10:25;;;;;;;23.50;14.45;;;;;;;;;;5057349;28;20036;-89
2023/10/02 13:12:51;;;;;;;29.13;16.23;;;;;;;;;;5057123;28;20040;-89
2023/10/02 13:15:20;;;;;;;29.42;17.10;;;;;;;;;;5056340;28;20063;-89
2023/10/02 13:17:46;;;;;;;25.33;16.00;;;;;;;;;;5056488;28;20086;-88
2023/10/02 13:20:14;;;;;;;30.17;16.92;;;;;;;;;;5057217;28;20111;-88
2023/10/02 13:22:40;;;;;;;27.58;16.83;;;;;;;;;;5052607;28;20049;-88
2023/10/02 13:25:11;;;;;;;24.10;15.32;;;;;;;;;;5053833;28;20068;-88
2023/10/02 13:27:37;;;;;;;23.35;13.73;;;;;;;;;;5053822;28;20029;-89
2023/10/02 13:30:05;;;;;;;26.80;15.35;;;;;;;;;;5054075;28;20376;-89
2023/10/02 13:32:31;;;;;;;24.65;15.77;;;;;;;;;;5053149;28;20025;-89
2023/10/02 13:34:57;;;;;;;24.52;15.88;;;;;;;;;;5054003;28;20032;-89
2023/10/02 13:37:23;;;;;;;21.73;14.50;;;;;;;;;;5052959;28;20395;-88
2023/10/02 13:39:49;;;;;;;22.40;13.75;;;;;;;;;;5052998;28;20471;-89
2023/10/02 13:42:18;;;;;;;27.10;15.70;;;;;;;;;;5053430;28;20094;-89
2023/10/02 13:44:44;;;;;;;26.50;16.63;;;;;;;;;;5053609;28;20036;-89
2023/10/02 13:47:10;;;;;;;29.30;17.70;;;;;;;;;;5052771;28;20394;-89
2023/10/02 13:49:36;;;;;;;27.42;17.20;;;;;;;;;;5052474;28;20082;-89
2023/10/02 13:52:02;;;;;;;26.73;16.52;;;;;;;;;;5052743;28;20028;-89
2023/10/02 13:54:28;;;;;;;23.63;14.80;;;;;;;;;;5052802;28;20025;-89
2023/10/02 13:56:54;;;;;;;27.40;17.25;;;;;;;;;;5053214;28;20470;-89
2023/10/02 13:59:21;;;;;;;27.85;16.58;;;;;;;;;;5053209;28;20526;-89
2023/10/02 14:01:48;;;;;;;23.05;15.70;;;;;;;;;;5052687;28;20159;-88
2023/10/02 14:07:44;;;;;;;25.17;15.27;;;;;;;;;;4991794;28;20027;-91
2023/10/02 14:10:12;;;;;;;23.88;15.23;;;;;;;;;;5069763;28;20048;-89
2023/10/02 14:12:44;;;;;;;26.02;16.15;;;;;;;;;;5071086;28;20058;-90
2023/10/02 14:15:16;;;;;;;23.38;14.32;;;;;;;;;;5052254;28;20096;-90
2023/10/02 14:17:57;;;;;;;23.35;14.98;;;;;;;;;;5053371;28;20036;-90
2023/10/02 14:20:41;;;;;;;26.67;15.15;;;;;;;;;;5052718;28;20051;-90
2023/10/02 14:26:43;;;;;;;;;;;;;;;;;;;;;
2023/10/02 14:42:11;;;;;;;24.58;12.52;;;;;;;;;;4973014;28;20077;-90
2023/10/02 14:48:17;;;;;;;19.05;10.73;;;;;;;;;;4934510;29;20034;-90
2023/10/02 14:50:43;;;;;;;25.50;12.50;;;;;;;;;;4914172;28;20042;-89
2023/10/02 14:53:09;;;;;;;21.25;12.05;;;;;;;;;;4984926;28;20046;-89
2023/10/02 14:55:44;;;;;;;21.15;11.35;;;;;;;;;;5004586;28;20037;-90
2023/10/02 14:58:14;;;;;;;27.75;13.45;;;;;;;;;;5053160;28;20163;-90
2023/10/02 15:00:40;;;;;;;22.20;12.30;;;;;;;;;;5052492;28;20052;-90
2023/10/02 15:03:06;;;;;;;24.50;12.63;;;;;;;;;;5054065;28;20464;-90
2023/10/02 15:05:33;;;;;;;25.25;11.68;;;;;;;;;;5052390;28;20025;-87
2023/10/02 15:08:02;;;;;;;23.92;11.65;;;;;;;;;;5053009;28;20029;-89
2023/10/02 15:10:32;;;;;;;19.40;10.68;;;;;;;;;;5056453;28;20021;-89
2023/10/02 15:12:58;;;;;;;23.00;10.68;;;;;;;;;;5056582;28;20029;-89
2023/10/02 15:15:28;;;;;;;24.58;11.05;;;;;;;;;;5056233;28;20446;-89
2023/10/02 15:17:54;;;;;;;23.13;11.88;;;;;;;;;;5056500;28;20031;-89
2023/10/02 15:20:23;;;;;;;18.48;10.13;;;;;;;;;;5055801;28;20029;-89
2023/10/02 15:22:50;;;;;;;21.42;10.93;;;;;;;;;;5055320;28;20514;-89
2023/10/02 15:25:16;;;;;;;19.55;10.38;;;;;;;;;;5056865;28;20025;-89
2023/10/02 15:27:43;;;;;;;16.55;9.85;;;;;;;;;;5056556;28;20021;-89
2023/10/02 15:30:10;;;;;;;18.40;10.32;;;;;;;;;;5056610;28;20139;-88
2023/10/02 15:32:39;;;;;;;15.60;9.48;;;;;;;;;;5061003;28;20033;-88
2023/10/02 15:35:05;;;;;;;21.50;10.97;;;;;;;;;;5059388;28;20036;-89
2023/10/02 15:37:35;;;;;;;16.08;9.60;;;;;;;;;;5055566;28;20071;-89
2023/10/02 15:40:07;;;;;;;18.83;9.82;;;;;;;;;;5055277;28;20052;-89
2023/10/02 15:42:37;;;;;;;19.17;9.50;;;;;;;;;;5055675;28;20033;-89
2023/10/02 15:45:04;;;;;;;20.05;9.02;;;;;;;;;;5055798;28;20473;-89
2023/10/02 15:47:31;;;;;;;18.73;11.05;;;;;;;;;;5055012;28;20066;-89
2023/10/02 15:50:00;;;;;;;17.77;10.05;;;;;;;;;;5055183;28;20453;-89
2023/10/02 15:52:29;;;;;;;14.73;9.23;;;;;;;;;;5054880;28;20475;-89